createdAt,value
2022-12-28T00:01:54.724Z,100450.63
2022-12-28T00:04:22.866Z,100440.19
2022-12-28T00:06:52.572Z,100439.91
2022-12-28T00:09:22.072Z,100441.59
2022-12-28T00:11:50.211Z,100441.88
2022-12-28T00:14:18.331Z,100438.91
2022-12-28T00:16:46.567Z,100420.44
2022-12-28T00:19:17.290Z,100425.78
2022-12-28T00:21:46.925Z,100430.84
2022-12-28T00:24:20.076Z,100432.53
2022-12-28T00:26:49.669Z,100420.13
2022-12-28T00:29:17.945Z,100421.81
2022-12-28T00:31:49.000Z,100421.81
2022-12-28T00:34:17.087Z,100416.44
2022-12-28T00:37:09.162Z,100405.72
2022-12-28T00:39:33.222Z,100403.31
2022-12-28T00:42:02.709Z,100404.03
2022-12-28T00:44:30.771Z,100393.31
2022-12-28T00:46:58.845Z,100396.00
2022-12-28T00:49:26.924Z,100398.66
2022-12-28T00:51:54.973Z,100384.41
2022-12-28T00:54:23.048Z,100383.56
2022-12-28T00:56:51.077Z,100382.56
2022-12-28T00:59:20.528Z,100377.22
2022-12-28T01:01:48.634Z,100378.88
2022-12-28T01:04:16.730Z,100360.41
2022-12-28T01:06:44.790Z,100365.47
2022-12-28T01:09:12.835Z,100364.50
2022-12-28T01:11:40.960Z,100355.75
2022-12-28T01:14:09.093Z,100360.09
2022-12-28T01:16:38.753Z,100357.44
2022-12-28T01:19:08.344Z,100355.59
2022-12-28T01:21:37.662Z,100352.91
2022-12-28T01:24:08.040Z,100311.25
2022-12-28T01:26:36.673Z,100350.38
2022-12-28T01:29:05.314Z,100335.97
2022-12-28T01:31:34.543Z,100329.09
2022-12-28T01:34:04.468Z,100326.94
2022-12-28T01:36:35.062Z,100326.94
2022-12-28T01:39:05.796Z,100324.25
2022-12-28T01:41:37.584Z,100318.19
2022-12-28T01:44:40.937Z,100313.53
2022-12-28T01:47:13.515Z,100306.47
2022-12-28T01:49:47.588Z,100309.16
2022-12-28T01:52:20.866Z,100303.78
2022-12-28T01:54:53.801Z,100303.78
2022-12-28T01:57:26.022Z,100292.22
2022-12-28T01:59:58.623Z,100293.06
2022-12-28T02:02:27.633Z,100293.06
2022-12-28T02:04:59.838Z,100280.66
2022-12-28T02:07:38.622Z,100282.31
2022-12-28T02:10:40.600Z,100271.91
2022-12-28T02:12:58.229Z,100260.88
2022-12-28T02:15:26.387Z,100260.88
2022-12-28T02:17:54.780Z,100251.84
2022-12-28T02:20:31.274Z,100245.63
2022-12-28T02:23:29.955Z,100234.03
2022-12-28T02:26:43.844Z,100217.94
2022-12-28T02:29:46.878Z,100216.28
2022-12-28T02:32:55.794Z,100209.22
2022-12-28T02:35:35.120Z,100202.16
2022-12-28T02:38:10.267Z,100191.44
2022-12-28T02:40:42.975Z,100186.94
2022-12-28T02:43:11.492Z,100182.41
2022-12-28T02:46:00.575Z,100187.78
2022-12-28T02:48:46.455Z,100181.41
2022-12-28T02:51:32.700Z,100164.31
2022-12-28T02:54:47.807Z,100153.06
2022-12-28T02:57:28.308Z,100159.94
2022-12-28T03:00:04.654Z,100155.59
2022-12-28T03:02:50.841Z,100137.78
2022-12-28T03:05:45.028Z,100135.97
2022-12-28T03:08:23.094Z,100127.91
2022-12-28T03:10:57.211Z,100109.91
2022-12-28T03:13:46.495Z,100110.97
2022-12-28T03:16:19.621Z,100107.31
2022-12-28T03:19:11.834Z,100100.94
2022-12-28T03:22:00.878Z,100092.03
2022-12-28T03:24:49.225Z,100072.59
2022-12-28T03:27:37.119Z,100080.81
2022-12-28T03:30:25.619Z,100062.69
2022-12-28T03:32:54.281Z,100068.91
2022-12-28T03:35:28.820Z,100056.34
2022-12-28T03:38:01.682Z,100042.94
2022-12-28T03:40:36.610Z,100024.09
2022-12-28T03:43:28.673Z,100035.88
2022-12-28T03:46:04.899Z,100030.50
2022-12-28T03:48:34.558Z,100022.47
2022-12-28T03:51:04.688Z,100023.16
2022-12-28T03:53:39.816Z,100017.78
2022-12-28T03:56:12.472Z,100007.06
2022-12-28T03:58:40.560Z,100007.06
2022-12-28T04:01:08.883Z,100003.38
2022-12-28T04:03:37.229Z,99992.66
2022-12-28T04:06:07.527Z,99998.00
2022-12-28T04:08:36.412Z,99987.28
2022-12-28T04:11:04.502Z,99991.66
2022-12-28T04:13:33.347Z,99979.22
2022-12-28T04:16:02.944Z,99972.91
2022-12-28T04:18:32.705Z,99965.81
2022-12-28T04:21:01.095Z,99960.47
2022-12-28T04:23:31.853Z,99956.81
2022-12-28T04:26:05.685Z,99953.28
2022-12-28T04:28:34.459Z,99942.38
2022-12-28T04:31:04.174Z,99939.00
2022-12-28T04:33:34.500Z,99946.06
2022-12-28T04:36:06.865Z,99934.50
2022-12-28T04:38:36.986Z,99931.81
2022-12-28T04:41:06.900Z,99924.63
2022-12-28T04:43:35.543Z,99910.50
2022-12-28T04:46:06.728Z,99891.69
2022-12-28T04:48:36.015Z,99893.41
2022-12-28T04:51:08.427Z,99854.78
2022-12-28T04:53:39.753Z,99892.44
2022-12-28T04:56:09.351Z,99870.44
2022-12-28T04:58:38.077Z,99880.00
2022-12-28T05:01:07.235Z,99869.28
2022-12-28T05:03:35.914Z,99861.22
2022-12-28T05:06:04.955Z,99861.06
2022-12-28T05:08:33.590Z,99854.03
2022-12-28T05:11:05.175Z,99847.81
2022-12-28T05:13:33.612Z,99846.84
2022-12-28T05:16:02.993Z,99797.47
2022-12-28T05:18:31.324Z,99833.44
2022-12-28T05:21:03.284Z,99820.00
2022-12-28T05:23:31.890Z,99813.81
2022-12-28T05:26:00.504Z,99804.91
2022-12-28T05:28:30.008Z,99798.56
2022-12-28T05:31:01.051Z,99787.47
2022-12-28T05:33:30.474Z,99792.84
2022-12-28T05:35:58.940Z,99789.66
2022-12-28T05:38:27.084Z,99785.97
2022-12-28T05:40:55.196Z,99785.16
2022-12-28T05:43:23.254Z,99771.75
2022-12-28T05:45:52.754Z,99769.06
2022-12-28T05:48:20.825Z,99774.44
2022-12-28T05:50:49.007Z,99764.69
2022-12-28T05:53:17.088Z,99756.63
2022-12-28T05:55:45.195Z,99744.25
2022-12-28T05:58:13.341Z,99745.91
2022-12-28T06:00:41.457Z,99744.25
2022-12-28T06:03:11.035Z,99735.19
2022-12-28T06:05:39.342Z,99740.53
2022-12-28T06:08:07.575Z,99721.75
2022-12-28T06:10:35.664Z,99724.44
2022-12-28T06:13:03.755Z,99724.44
2022-12-28T06:15:31.964Z,99726.97
2022-12-28T06:18:00.052Z,99714.56
2022-12-28T06:20:29.564Z,99704.69
2022-12-28T06:22:57.650Z,99706.38
2022-12-28T06:25:25.727Z,99699.34
2022-12-28T06:27:54.472Z,99692.28
2022-12-28T06:30:22.541Z,99692.28
2022-12-28T06:32:50.682Z,99681.88
2022-12-28T06:35:19.294Z,99683.25
2022-12-28T06:37:50.328Z,99681.53
2022-12-28T06:40:18.416Z,99670.81
2022-12-28T06:42:46.479Z,99670.81
2022-12-28T06:45:14.572Z,99664.63
2022-12-28T06:47:42.658Z,99669.16
2022-12-28T06:50:11.093Z,99660.94
2022-12-28T06:52:39.205Z,99641.81
2022-12-28T06:55:09.544Z,99644.00
2022-12-28T06:57:37.621Z,99647.69
2022-12-28T07:00:07.054Z,99644.00
2022-12-28T07:02:35.286Z,99644.00
2022-12-28T07:05:03.443Z,99647.69
2022-12-28T07:07:31.580Z,99636.97
2022-12-28T07:09:59.659Z,99638.63
2022-12-28T07:12:29.157Z,99625.38
2022-12-28T07:14:58.452Z,99627.09
2022-12-28T07:17:26.537Z,99631.59
2022-12-28T07:19:55.693Z,99632.44
2022-12-28T07:22:23.757Z,99615.50
2022-12-28T07:24:51.779Z,99617.19
2022-12-28T07:27:19.835Z,99611.81
2022-12-28T07:29:49.253Z,99608.16
2022-12-28T07:32:17.300Z,99601.09
2022-12-28T07:34:45.348Z,99599.25
2022-12-28T07:37:13.414Z,99579.63
2022-12-28T07:39:41.441Z,99579.63
2022-12-28T07:42:12.292Z,99572.59
2022-12-28T07:44:48.668Z,99574.59
2022-12-28T07:47:18.437Z,99574.25
2022-12-28T07:49:46.499Z,99568.09
2022-12-28T07:52:14.549Z,99567.25
2022-12-28T07:54:42.597Z,99555.66
2022-12-28T07:57:10.754Z,99550.31
2022-12-28T07:59:38.837Z,99545.78
2022-12-28T08:02:07.091Z,99545.78
2022-12-28T08:04:36.722Z,99540.41
2022-12-28T08:07:04.801Z,99535.06
2022-12-28T08:09:32.872Z,99527.00
2022-12-28T08:12:00.914Z,99529.69
2022-12-28T08:14:28.957Z,99518.97
2022-12-28T08:16:57.224Z,99518.97
2022-12-28T08:19:25.333Z,99517.31
2022-12-28T08:21:54.771Z,99515.44
2022-12-28T08:24:23.113Z,99517.31
2022-12-28T08:26:51.175Z,99512.94
2022-12-28T08:29:21.753Z,99505.91
2022-12-28T08:31:51.310Z,99510.94
2022-12-28T08:34:23.173Z,99509.09
2022-12-28T08:36:51.311Z,99497.50
2022-12-28T08:39:20.820Z,99488.44
2022-12-28T08:41:50.136Z,99483.09
2022-12-28T08:44:18.247Z,99477.72
2022-12-28T08:46:46.444Z,99486.78
2022-12-28T08:49:15.926Z,99478.75
2022-12-28T08:51:44.322Z,99488.44
2022-12-28T08:54:14.884Z,99469.03
2022-12-28T08:56:46.084Z,99474.75
2022-12-28T08:59:17.056Z,99458.31
2022-12-28T09:01:46.158Z,99461.97
2022-12-28T09:04:16.386Z,99448.28
2022-12-28T09:06:45.556Z,99459.97
2022-12-28T09:09:15.818Z,99450.25
2022-12-28T09:11:48.933Z,99455.47
2022-12-28T09:14:23.857Z,99445.88
2022-12-28T09:16:53.385Z,99448.56
2022-12-28T09:19:22.260Z,99438.00
2022-12-28T09:21:52.822Z,99432.66
2022-12-28T09:24:21.315Z,99431.50
2022-12-28T09:26:53.240Z,99425.47
2022-12-28T09:29:21.514Z,99421.13
2022-12-28T09:31:49.631Z,99412.06
2022-12-28T09:37:06.463Z,99411.03
2022-12-28T09:39:34.688Z,99405.66
2022-12-28T09:42:07.669Z,99404.69
2022-12-28T09:44:46.525Z,99402.97
2022-12-28T09:47:24.411Z,99396.81
2022-12-28T09:50:06.633Z,99399.31
2022-12-28T09:52:37.838Z,99392.25
2022-12-28T09:55:12.608Z,99364.31
2022-12-28T09:57:47.176Z,99392.25
2022-12-28T10:00:21.198Z,99391.44
2022-12-28T10:02:52.221Z,99386.91
2022-12-28T10:05:22.372Z,99369.16
2022-12-28T10:07:52.503Z,99359.44
2022-12-28T10:10:23.386Z,99278.53
2022-12-28T10:12:55.983Z,99359.28
2022-12-28T10:15:27.792Z,99360.09
2022-12-28T10:17:56.568Z,99349.34
2022-12-28T10:20:24.799Z,99345.69
2022-12-28T10:22:57.992Z,99345.69
2022-12-28T10:25:27.841Z,99341.13
2022-12-28T10:27:57.877Z,99327.91
2022-12-28T10:30:28.255Z,99330.75
2022-12-28T10:33:02.577Z,99323.38
2022-12-28T10:35:43.469Z,99317.19
2022-12-28T10:38:23.021Z,99311.81
2022-12-28T10:40:59.629Z,99322.53
2022-12-28T10:43:32.317Z,99311.81
2022-12-28T10:46:01.564Z,99309.13
2022-12-28T10:48:34.367Z,99295.72
2022-12-28T10:51:12.505Z,99304.44
2022-12-28T10:53:44.409Z,99293.22
2022-12-28T10:56:23.430Z,99290.38
2022-12-28T10:58:54.118Z,99292.41
2022-12-28T11:01:27.804Z,99293.03
2022-12-28T11:04:03.004Z,99262.78
2022-12-28T11:06:32.302Z,99284.19
2022-12-28T11:09:08.089Z,99289.72
2022-12-28T11:11:36.147Z,99290.38
2022-12-28T11:14:14.241Z,99285.00
2022-12-28T11:16:43.256Z,99274.97
2022-12-28T11:19:12.776Z,99279.63
2022-12-28T11:21:43.149Z,99270.97
2022-12-28T11:24:17.809Z,99261.91
2022-12-28T11:26:48.773Z,99263.56
2022-12-28T11:29:20.667Z,99263.56
2022-12-28T11:31:54.581Z,99258.19
2022-12-28T11:34:27.228Z,99254.50
2022-12-28T11:36:55.544Z,99255.50
2022-12-28T11:39:44.020Z,99252.81
2022-12-28T11:42:38.325Z,99249.16
2022-12-28T11:45:04.092Z,99246.66
2022-12-28T11:47:34.197Z,99244.78
2022-12-28T11:50:39.466Z,99238.59
2022-12-28T11:53:23.503Z,99240.44
2022-12-28T11:56:01.668Z,99235.06
2022-12-28T11:58:45.640Z,99230.56
2022-12-28T12:01:51.032Z,99224.34
2022-12-28T12:04:37.854Z,99224.34
2022-12-28T12:07:32.072Z,99218.16
2022-12-28T12:10:35.760Z,99221.66
2022-12-28T12:13:20.675Z,99217.34
2022-12-28T12:15:50.618Z,99220.00
2022-12-28T12:18:25.109Z,99217.34
2022-12-28T12:21:00.788Z,99210.28
2022-12-28T12:23:42.156Z,99217.34
2022-12-28T12:26:27.712Z,99211.97
2022-12-28T12:29:00.360Z,99211.97
2022-12-28T12:31:31.949Z,99206.59
2022-12-28T12:34:08.154Z,99206.44
2022-12-28T12:37:18.105Z,99206.59
2022-12-28T12:40:11.465Z,99202.91
2022-12-28T12:42:51.341Z,99211.97
2022-12-28T12:45:28.540Z,99206.59
2022-12-28T12:48:19.093Z,99193.38
2022-12-28T12:51:22.815Z,99202.91
2022-12-28T12:54:07.633Z,99192.53
2022-12-28T12:56:47.176Z,99201.25
2022-12-28T12:59:47.932Z,99207.41
2022-12-28T13:02:33.556Z,99201.25
2022-12-28T13:05:04.695Z,99185.50
2022-12-28T13:07:35.140Z,99187.84
2022-12-28T13:10:05.805Z,99162.13
2022-12-28T13:12:33.920Z,99116.09
2022-12-28T13:15:09.078Z,99186.81
2022-12-28T13:17:40.716Z,99186.81
2022-12-28T13:20:11.161Z,99187.16
2022-12-28T13:22:47.923Z,99193.84
2022-12-28T13:25:26.784Z,99157.97
2022-12-28T13:27:55.481Z,99190.34
2022-12-28T13:30:25.680Z,99185.78
2022-12-28T13:32:57.155Z,99183.47
2022-12-28T13:35:28.565Z,99166.47
2022-12-28T13:38:13.460Z,99187.66
2022-12-28T13:40:42.974Z,99189.31
2022-12-28T13:43:39.673Z,99197.19
2022-12-28T13:46:13.166Z,99192.19
2022-12-28T13:48:46.903Z,99196.34
2022-12-28T13:51:17.755Z,99202.56
2022-12-28T13:53:51.158Z,99201.69
2022-12-28T13:56:22.075Z,99195.53
2022-12-28T13:58:54.770Z,99197.19
2022-12-28T14:01:26.153Z,99198.22
2022-12-28T14:04:08.795Z,99199.19
2022-12-28T14:06:48.685Z,99198.38
2022-12-28T14:09:20.564Z,99204.56
2022-12-28T14:11:51.649Z,99202.91
2022-12-28T14:14:20.145Z,99198.38
2022-12-28T14:16:48.530Z,99205.22
2022-12-28T14:19:17.031Z,99199.19
2022-12-28T14:21:48.257Z,99208.75
2022-12-28T14:24:18.053Z,99206.06
2022-12-28T14:26:49.781Z,99202.56
2022-12-28T14:29:23.997Z,99216.63
2022-12-28T14:31:56.515Z,99198.84
2022-12-28T14:34:26.268Z,99216.63
2022-12-28T14:36:56.339Z,99215.78
2022-12-28T14:39:31.098Z,99215.78
2022-12-28T14:42:00.640Z,99227.34
2022-12-28T14:44:33.785Z,99223.81
2022-12-28T14:47:02.192Z,99186.91
2022-12-28T14:49:36.404Z,99235.41
2022-12-28T14:52:42.822Z,99243.44
2022-12-28T14:55:33.490Z,99239.06
2022-12-28T14:58:06.040Z,99236.38
2022-12-28T15:00:39.538Z,99241.75
2022-12-28T15:03:18.752Z,99247.47
2022-12-28T15:05:47.927Z,99254.16
2022-12-28T15:08:16.050Z,99265.25
2022-12-28T15:10:51.339Z,99252.81
2022-12-28T15:13:20.571Z,99254.88
2022-12-28T15:15:55.021Z,99258.69
2022-12-28T15:18:23.494Z,99264.03
2022-12-28T15:20:51.797Z,99251.50
2022-12-28T15:23:20.890Z,99252.47
2022-12-28T15:25:51.362Z,99272.94
2022-12-28T15:28:19.408Z,99275.63
2022-12-28T15:30:47.523Z,99272.94
2022-12-28T15:33:16.559Z,99280.13
2022-12-28T15:35:44.645Z,99279.28
2022-12-28T15:38:16.517Z,99280.97
2022-12-28T15:40:44.554Z,99282.16
2022-12-28T15:43:14.002Z,99287.34
2022-12-28T15:45:42.073Z,99291.72
2022-12-28T15:48:10.131Z,99291.72
2022-12-28T15:50:38.200Z,99286.34
2022-12-28T15:53:06.235Z,99288.34
2022-12-28T15:55:34.547Z,99294.38
2022-12-28T15:58:02.568Z,99295.19
2022-12-28T16:00:32.121Z,99298.72
2022-12-28T16:03:00.321Z,99296.91
2022-12-28T16:05:28.499Z,99295.38
2022-12-28T16:07:56.539Z,99285.50
2022-12-28T16:10:24.596Z,99291.72
2022-12-28T16:12:52.737Z,99297.88
2022-12-28T16:15:20.789Z,99298.72
2022-12-28T16:17:57.114Z,99292.53
2022-12-28T16:20:25.643Z,99302.44
2022-12-28T16:22:54.441Z,99308.59
2022-12-28T16:25:22.481Z,99319.34
2022-12-28T16:27:50.791Z,99313.16
2022-12-28T16:30:18.952Z,99311.47
2022-12-28T16:32:49.503Z,99317.50
2022-12-28T16:35:17.706Z,99317.50
2022-12-28T16:37:46.031Z,99320.19
2022-12-28T16:40:14.083Z,99322.88
2022-12-28T16:42:46.014Z,99324.53
2022-12-28T16:45:14.333Z,99330.91
2022-12-28T16:47:44.900Z,99320.19
2022-12-28T16:50:14.824Z,99330.91
2022-12-28T16:52:42.868Z,99329.25
2022-12-28T16:55:11.053Z,99330.91
2022-12-28T16:57:39.159Z,99330.06
2022-12-28T17:00:08.732Z,99332.75
2022-12-28T17:02:36.923Z,99328.22
2022-12-28T17:05:05.535Z,99330.91
2022-12-28T17:07:34.971Z,99321.03
2022-12-28T17:10:03.073Z,99320.19
2022-12-28T17:12:31.190Z,99324.53
2022-12-28T17:15:04.601Z,99321.84
2022-12-28T17:17:33.299Z,99322.88
2022-12-28T17:20:01.655Z,99324.69
2022-12-28T17:22:31.034Z,99320.19
2022-12-28T17:25:00.572Z,99313.78
2022-12-28T17:27:28.853Z,99320.19
2022-12-28T17:29:57.087Z,99314.81
2022-12-28T17:32:25.129Z,99316.00
2022-12-28T17:34:53.285Z,99320.19
2022-12-28T17:37:21.358Z,99319.34
2022-12-28T17:39:49.409Z,99325.53
2022-12-28T17:42:18.883Z,99314.81
2022-12-28T17:44:48.690Z,99326.38
2022-12-28T17:47:16.827Z,99316.47
2022-12-28T17:49:44.886Z,99327.22
2022-12-28T17:52:17.407Z,99321.84
2022-12-28T17:54:45.416Z,99307.78
2022-12-28T17:57:13.506Z,99320.19
2022-12-28T17:59:42.926Z,99304.09
2022-12-28T18:02:12.945Z,99314.81
2022-12-28T18:04:42.207Z,99307.78
2022-12-28T18:07:10.247Z,99313.16
2022-12-28T18:09:38.311Z,99301.41
2022-12-28T18:12:06.617Z,99307.78
2022-12-28T18:14:34.667Z,99297.06
2022-12-28T18:17:04.173Z,99301.41
2022-12-28T18:19:32.480Z,99304.09
2022-12-28T18:22:00.538Z,99309.47
2022-12-28T18:24:28.960Z,99295.38
2022-12-28T18:26:57.016Z,99306.78
2022-12-28T18:29:25.064Z,99307.78
2022-12-28T18:31:53.130Z,99312.81
2022-12-28T18:34:22.599Z,99312.81
2022-12-28T18:36:50.619Z,99305.75
2022-12-28T18:39:18.707Z,99305.75
2022-12-28T18:41:46.746Z,99307.78
2022-12-28T18:44:14.909Z,99303.25
2022-12-28T18:46:42.944Z,99298.72
2022-12-28T18:49:11.021Z,99305.75
2022-12-28T18:51:40.464Z,99299.56
2022-12-28T18:54:08.507Z,99298.72
2022-12-28T18:56:36.513Z,99297.72
2022-12-28T18:59:04.619Z,99298.72
2022-12-28T19:02:05.049Z,99295.38
2022-12-28T19:04:21.094Z,99303.25
2022-12-28T19:06:50.953Z,99293.38
2022-12-28T19:09:19.281Z,99295.03
2022-12-28T19:11:47.518Z,99292.53
2022-12-28T19:14:17.204Z,99302.44
2022-12-28T19:16:45.441Z,99291.72
2022-12-28T19:19:13.769Z,99297.06
2022-12-28T19:21:42.937Z,99288.34
2022-12-28T19:24:15.407Z,99300.38
2022-12-28T19:26:44.164Z,99298.72
2022-12-28T19:29:13.002Z,99290.69
2022-12-28T19:31:41.339Z,99298.72
2022-12-28T19:34:09.491Z,99295.03
2022-12-28T19:36:37.537Z,99301.41
2022-12-28T19:39:05.815Z,99284.66
2022-12-28T19:41:35.731Z,99285.31
2022-12-28T19:44:04.082Z,99298.72
2022-12-28T19:46:32.606Z,99296.03
2022-12-28T19:49:01.924Z,99293.38
2022-12-28T19:51:32.382Z,99295.03
2022-12-28T19:54:01.030Z,99286.34
2022-12-28T19:56:29.561Z,99277.28
2022-12-28T19:59:05.599Z,99283.47
2022-12-28T20:01:36.567Z,99277.28
2022-12-28T20:04:12.277Z,99271.91
2022-12-28T20:06:43.163Z,99275.63
2022-12-28T20:09:12.779Z,99270.25
2022-12-28T20:11:41.071Z,99271.06
2022-12-28T20:14:13.996Z,99273.94
2022-12-28T20:16:42.902Z,99262.72
2022-12-28T20:19:12.401Z,99266.06
2022-12-28T20:21:42.044Z,99267.56
2022-12-28T20:24:13.019Z,99264.88
2022-12-28T20:26:41.161Z,99264.88
2022-12-28T20:29:10.681Z,99264.88
2022-12-28T20:31:38.801Z,99259.53
2022-12-28T20:34:06.953Z,99261.19
2022-12-28T20:36:35.489Z,99254.16
2022-12-28T20:39:04.457Z,99223.75
2022-12-28T20:41:51.055Z,99253.16
2022-12-28T20:44:23.948Z,99250.47
2022-12-28T20:46:52.050Z,99245.44
2022-12-28T20:49:20.336Z,99250.81
2022-12-28T20:51:49.443Z,99254.16
2022-12-28T20:54:17.714Z,99251.47
2022-12-28T20:56:50.576Z,99251.47
2022-12-28T20:59:25.059Z,99254.16
2022-12-28T21:01:54.389Z,99232.72
2022-12-28T21:04:26.147Z,99248.81
2022-12-28T21:06:54.596Z,99248.81
2022-12-28T21:09:23.232Z,99242.59
2022-12-28T21:11:51.326Z,99241.75
2022-12-28T21:14:19.724Z,99230.03
2022-12-28T21:16:49.391Z,99231.88
2022-12-28T21:19:17.787Z,99222.16
2022-12-28T21:21:47.489Z,99218.28
2022-12-28T21:24:15.885Z,99216.63
2022-12-28T21:26:43.946Z,99217.44
2022-12-28T21:29:12.047Z,99211.25
2022-12-28T21:31:40.326Z,99210.78
2022-12-28T21:34:09.886Z,99211.25
2022-12-28T21:36:38.003Z,99202.56
2022-12-28T21:39:06.088Z,99205.91
2022-12-28T21:41:52.949Z,99207.56
2022-12-28T21:44:23.017Z,99207.56
2022-12-28T21:46:52.301Z,99206.72
2022-12-28T21:49:22.294Z,99207.56
2022-12-28T21:51:51.573Z,99199.50
2022-12-28T21:54:21.598Z,99193.31
2022-12-28T21:56:52.551Z,99196.81
2022-12-28T21:59:21.521Z,99193.13
2022-12-28T22:02:07.123Z,99195.16
2022-12-28T22:05:00.162Z,99179.09
2022-12-28T22:07:30.652Z,99188.13
2022-12-28T22:10:16.069Z,99173.91
2022-12-28T22:12:44.182Z,99169.69
2022-12-28T22:15:32.356Z,99177.41
2022-12-28T22:18:03.647Z,99156.84
2022-12-28T22:20:34.356Z,99166.66
2022-12-28T22:23:03.411Z,99157.63
2022-12-28T22:25:32.185Z,99146.91
2022-12-28T22:28:00.657Z,99142.72
2022-12-28T22:30:29.620Z,99136.19
2022-12-28T22:32:57.810Z,99130.81
2022-12-28T22:35:25.937Z,99129.13
2022-12-28T22:37:55.522Z,99120.91
2022-12-28T22:40:24.274Z,99120.91
2022-12-28T22:42:52.452Z,99109.38
2022-12-28T22:45:22.476Z,99092.31
2022-12-28T22:47:54.219Z,99094.94
2022-12-28T22:50:22.740Z,99092.25
2022-12-28T22:52:50.853Z,99087.91
2022-12-28T22:55:20.412Z,99089.56
2022-12-28T22:57:48.481Z,99084.22
2022-12-28T23:00:16.831Z,99082.53
2022-12-28T23:02:45.130Z,99074.31
2022-12-28T23:05:15.625Z,99074.31
2022-12-28T23:07:43.736Z,99076.16
2022-12-28T23:10:11.876Z,99068.13
2022-12-28T23:12:41.379Z,99056.72
2022-12-28T23:15:18.720Z,99053.06
2022-12-28T23:17:48.163Z,99053.06
2022-12-28T23:20:34.114Z,99044.16
2022-12-28T23:23:19.610Z,99034.28
2022-12-28T23:26:05.124Z,99028.91
2022-12-28T23:28:35.986Z,99021.88
2022-12-28T23:31:04.752Z,98974.03
2022-12-28T23:33:32.962Z,99011.16
2022-12-28T23:36:03.588Z,99003.09
2022-12-28T23:38:32.587Z,99000.41
2022-12-28T23:41:14.579Z,98988.03
2022-12-28T23:43:44.056Z,98991.38
2022-12-28T23:46:12.247Z,98978.97
2022-12-28T23:48:40.356Z,98973.59
2022-12-28T23:51:09.115Z,98976.47
2022-12-28T23:53:37.482Z,98952.88
2022-12-28T23:56:05.898Z,98969.94
2022-12-28T23:58:34.001Z,98969.94
